Time;durP1;ratioP1;P1;durP2;ratioP2;P2;SDS_P1;SDS_P2;PMS_P1;PMS_P2;Temp;Humidity;BMP_temperature;BMP_pressure;BME280_temperature;BME280_humidity;BME280_pressure;Samples;Min_cycle;Max_cycle;Signal;HPM_P1;HPM_P2
2021/12/25 00:00:58;;;;;;;2.53;1.50;;;;;;;19.56;37.66;101406.69;4163677;28;20496;-46
2021/12/25 00:03:00;;;;;;;1.83;1.63;;;;;;;19.56;37.67;101412.22;4161648;28;20095;-45
2021/12/25 00:05:03;;;;;;;2.25;1.58;;;;;;;19.57;37.67;101416.69;4163265;28;20042;-44
2021/12/25 00:07:05;;;;;;;1.50;1.40;;;;;;;19.57;37.81;101425.03;4161847;28;20041;-47
2021/12/25 00:09:06;;;;;;;2.03;1.50;;;;;;;19.58;37.39;101423.09;4163103;28;20125;-44
2021/12/25 00:11:11;;;;;;;2.30;1.80;;;;;;;19.57;37.52;101416.69;4162863;28;20481;-46
2021/12/25 00:13:13;;;;;;;2.42;1.60;;;;;;;19.57;37.38;101411.16;4163396;28;20068;-50
2021/12/25 00:15:14;;;;;;;2.00;1.70;;;;;;;19.57;37.85;101411.16;4163777;28;20076;-48
2021/12/25 00:17:16;;;;;;;2.13;1.50;;;;;;;19.56;37.57;101406.69;4166883;28;20392;-45
2021/12/25 00:19:20;;;;;;;1.73;1.50;;;;;;;19.55;37.44;101408.63;4166019;28;20100;-48
2021/12/25 00:21:24;;;;;;;2.05;1.55;;;;;;;19.57;37.28;101399.22;4167014;28;20091;-46
2021/12/25 00:23:26;;;;;;;2.13;1.70;;;;;;;19.56;37.62;101403.91;4166590;28;20021;-46
2021/12/25 00:25:31;;;;;;;2.08;1.55;;;;;;;19.56;37.73;101387.25;4166353;28;20037;-50
2021/12/25 00:29:54;;;;;;;2.97;1.63;;;;;;;19.55;37.44;101391.13;4166461;28;20056;-45
2021/12/25 00:32:47;;;;;;;1.70;1.60;;;;;;;19.56;37.65;101398.34;4165996;28;20045;-44
2021/12/25 00:34:17;;;;;;;2.03;1.60;;;;;;;19.55;37.37;101399.44;4155763;28;20099;-47
2021/12/25 00:36:22;;;;;;;2.00;1.63;;;;;;;19.54;37.38;101406.13;4166589;28;20480;-45
2021/12/25 00:38:23;;;;;;;;;;;;;;;19.51;37.37;101395.53;4166759;28;20037;-49
2021/12/25 00:40:25;;;;;;;2.42;1.50;;;;;;;19.57;37.12;101388.94;4166155;28;20059;-45
2021/12/25 00:42:27;;;;;;;2.30;1.70;;;;;;;19.55;37.62;101374.47;4166286;28;20089;-48
2021/12/25 00:44:31;;;;;;;2.35;1.70;;;;;;;19.54;37.22;101372.81;4165561;28;20037;-45
2021/12/25 00:46:33;;;;;;;2.25;1.60;;;;;;;19.53;37.52;101371.13;4166383;28;20034;-44
2021/12/25 00:48:34;;;;;;;2.47;1.75;;;;;;;19.52;37.47;101369.47;4166230;28;20033;-44
2021/12/25 00:50:36;;;;;;;2.45;2.10;;;;;;;19.52;37.65;101369.47;4165786;28;20041;-48
2021/12/25 00:52:37;;;;;;;2.35;1.90;;;;;;;19.38;37.61;101351.50;4166268;28;20095;-46
2021/12/25 00:54:39;;;;;;;3.03;1.98;;;;;;;19.49;37.56;101369.97;4166008;28;20484;-47
2021/12/25 00:56:41;;;;;;;2.35;1.45;;;;;;;19.50;37.57;101372.47;4165989;28;20049;-48
2021/12/25 00:58:45;;;;;;;2.58;2.08;;;;;;;19.47;37.64;101355.50;4165414;28;20038;-48
2021/12/25 01:00:46;;;;;;;2.63;1.75;;;;;;;19.47;37.45;101355.50;4165725;28;20029;-45
2021/12/25 01:02:48;;;;;;;2.38;1.85;;;;;;;19.46;37.63;101359.38;4164959;28;20454;-44
2021/12/25 01:04:49;;;;;;;2.60;1.65;;;;;;;19.47;37.47;101361.06;4165712;28;20045;-45
2021/12/25 01:06:52;;;;;;;1.92;1.60;;;;;;;19.45;37.19;101353.00;4166252;28;20026;-44
2021/12/25 01:08:54;;;;;;;2.00;1.67;;;;;;;19.47;37.32;101349.94;4165574;28;20033;-45
2021/12/25 01:10:55;;;;;;;2.30;1.90;;;;;;;19.47;37.33;101333.28;4165289;28;20377;-43
2021/12/25 01:15:00;;;;;;;2.70;1.83;;;;;;;19.45;37.49;101352.16;4165949;28;20033;-48
2021/12/25 01:30:46;;;;;;;3.10;2.00;;;;;;;19.41;37.34;101356.56;4165675;28;20414;-45
2021/12/25 01:33:16;;;;;;;2.50;2.30;;;;;;;19.45;37.41;101368.81;4165451;28;20021;-49
2021/12/25 01:37:34;;;;;;;2.78;1.90;;;;;;;19.42;37.40;101355.44;4165346;28;20080;-46
2021/12/25 01:48:42;;;;;;;2.67;2.00;;;;;;;19.40;37.38;101366.00;4164158;28;20079;-48
2021/12/25 01:50:47;;;;;;;3.45;1.60;;;;;;;19.40;37.18;101371.53;4165334;28;20080;-47
2021/12/25 01:52:48;;;;;;;2.63;1.77;;;;;;;19.38;37.65;101379.25;4164290;28;20041;-48
2021/12/25 01:54:49;;;;;;;2.92;2.13;;;;;;;19.39;37.54;101392.06;4165226;28;20029;-47
2021/12/25 01:56:51;;;;;;;2.10;1.88;;;;;;;19.38;37.67;101387.59;4165228;28;20416;-44
2021/12/25 01:58:52;;;;;;;2.85;1.90;;;;;;;19.37;37.28;101378.44;4164982;28;20041;-46
2021/12/25 02:00:56;;;;;;;3.10;2.60;;;;;;;19.32;37.34;101372.81;4164308;28;20473;-48
2021/12/25 02:02:58;;;;;;;2.95;2.13;;;;;;;19.37;37.48;101372.03;4163913;28;20042;-44
2021/12/25 02:04:59;;;;;;;2.75;2.10;;;;;;;19.36;37.24;101362.06;4164494;28;20041;-44
2021/12/25 02:07:04;;;;;;;4.65;2.22;;;;;;;19.34;37.28;101353.16;4164448;28;20444;-48
2021/12/25 02:09:05;;;;;;;2.70;2.20;;;;;;;19.35;37.59;101352.06;4164623;28;20037;-48
2021/12/25 02:11:07;;;;;;;2.50;2.08;;;;;;;19.35;37.41;101344.56;4164937;28;20045;-47
2021/12/25 02:13:11;;;;;;;2.47;2.00;;;;;;;19.30;37.34;101336.19;4164787;28;20091;-44
2021/12/25 02:15:18;;;;;;;2.50;2.00;;;;;;;19.34;37.44;101344.84;4163993;28;20369;-45
2021/12/25 02:17:35;;;;;;;2.28;1.95;;;;;;;19.29;37.52;101338.13;4164675;28;20029;-46
2021/12/25 02:19:46;;;;;;;2.10;1.70;;;;;;;19.32;37.10;101342.31;4164623;28;20045;-45
2021/12/25 02:21:50;;;;;;;2.03;1.80;;;;;;;19.32;37.25;101342.31;4164059;28;20107;-44
2021/12/25 02:23:54;;;;;;;2.30;1.80;;;;;;;19.33;37.53;101334.81;4164551;28;20133;-46
2021/12/25 02:25:57;;;;;;;3.05;2.08;;;;;;;19.28;37.32;101336.44;4164766;28;20519;-46
2021/12/25 02:27:59;;;;;;;2.28;2.03;;;;;;;19.32;37.55;101333.97;4164560;28;20570;-46
2021/12/25 02:30:00;;;;;;;2.28;1.85;;;;;;;19.32;37.04;101322.88;4164032;28;20082;-48
2021/12/25 02:32:06;;;;;;;2.50;2.10;;;;;;;19.32;37.15;101313.72;4163769;28;20411;-44
2021/12/25 02:34:07;;;;;;;2.92;2.15;;;;;;;19.35;37.54;101318.75;4163776;28;20046;-47
2021/12/25 02:36:12;;;;;;;2.50;1.88;;;;;;;19.33;37.42;101304.28;4163601;28;20531;-47
2021/12/25 02:38:14;;;;;;;5.50;2.15;;;;;;;19.36;37.52;101301.00;4163941;28;20083;-47
2021/12/25 02:40:15;;;;;;;2.88;2.20;;;;;;;19.31;37.27;101285.13;4163177;28;20049;-48
2021/12/25 02:42:17;;;;;;;2.70;1.98;;;;;;;19.38;37.55;101302.44;4164506;28;20033;-49
2021/12/25 02:44:19;;;;;;;1.92;1.63;;;;;;;19.41;37.40;101303.81;4164337;28;20034;-45
2021/12/25 02:46:22;;;;;;;2.63;1.90;;;;;;;19.38;37.27;101298.78;4164116;28;20049;-49
2021/12/25 02:48:26;;;;;;;3.08;2.25;;;;;;;19.42;37.34;101288.84;4163675;28;20424;-45
2021/12/25 02:50:30;;;;;;;2.10;1.83;;;;;;;19.44;37.43;101281.09;4164648;28;20075;-46
2021/12/25 02:52:31;;;;;;;2.60;2.15;;;;;;;19.46;37.27;101270.56;4163393;28;20041;-47
2021/12/25 02:54:33;;;;;;;2.78;2.38;;;;;;;19.47;37.26;101261.13;4163869;28;20041;-45
2021/12/25 02:56:34;;;;;;;2.70;2.10;;;;;;;19.44;37.08;101256.97;4164168;28;20254;-44
2021/12/25 02:58:36;;;;;;;2.90;1.95;;;;;;;19.45;37.11;101260.56;4163088;28;20034;-45
2021/12/25 03:00:54;;;;;;;2.55;2.08;;;;;;;19.47;37.07;101258.34;4163475;28;20037;-46
2021/12/25 03:02:56;;;;;;;2.47;2.15;;;;;;;19.51;37.34;101256.72;4164218;28;20026;-46
2021/12/25 03:04:57;;;;;;;2.78;2.10;;;;;;;19.51;36.96;101256.72;4164016;28;20045;-46
2021/12/25 03:06:59;;;;;;;2.33;1.92;;;;;;;19.52;37.42;101259.25;4164254;28;20097;-47
2021/12/25 03:09:00;;;;;;;2.90;2.00;;;;;;;19.47;37.45;101237.03;4163444;28;20432;-48
2021/12/25 03:11:05;;;;;;;2.85;2.25;;;;;;;19.52;37.17;101248.16;4163391;28;20159;-45
2021/12/25 03:15:16;;;;;;;4.38;2.28;;;;;;;19.55;36.96;101239.28;4164425;28;20107;-47
2021/12/25 03:17:18;;;;;;;2.25;1.90;;;;;;;19.58;37.08;101232.38;4163938;28;20384;-47
2021/12/25 03:19:27;;;;;;;2.80;2.22;;;;;;;19.60;37.38;101221.88;4164248;28;20056;-45
2021/12/25 03:21:28;;;;;;;4.53;2.00;;;;;;;19.61;37.08;101229.13;4164130;28;20053;-44
2021/12/25 03:23:31;;;;;;;2.60;2.17;;;;;;;19.63;37.17;101231.63;4163809;28;20045;-48
2021/12/25 03:25:33;;;;;;;3.95;2.30;;;;;;;19.64;37.25;101234.13;4163710;28;20045;-44
2021/12/25 03:27:39;;;;;;;3.28;2.20;;;;;;;19.62;37.29;101214.13;4164066;28;20026;-47
2021/12/25 03:29:42;;;;;;;2.30;2.00;;;;;;;19.64;36.98;101217.47;4163703;28;20045;-46
2021/12/25 03:31:45;;;;;;;2.20;2.00;;;;;;;19.64;36.99;101206.34;4164242;28;20095;-46
2021/12/25 03:33:50;;;;;;;3.10;2.08;;;;;;;19.66;37.36;101198.63;4164029;28;20029;-46
2021/12/25 03:35:51;;;;;;;2.85;2.08;;;;;;;19.67;36.92;101188.34;4164209;28;20087;-47
2021/12/25 03:37:53;;;;;;;3.78;2.38;;;;;;;19.69;36.97;101197.22;4163893;28;20095;-47
2021/12/25 03:39:54;;;;;;;2.97;2.17;;;;;;;19.68;36.92;101188.06;4163761;28;20107;-46
2021/12/25 03:41:57;;;;;;;2.60;2.13;;;;;;;19.69;37.00;101186.97;4163705;28;20095;-47
2021/12/25 03:44:00;;;;;;;2.90;2.22;;;;;;;19.70;37.16;101199.75;4163457;28;20481;-47
2021/12/25 03:46:02;;;;;;;2.45;1.80;;;;;;;19.61;36.83;101181.94;4163834;28;20183;-47
2021/12/25 03:48:10;;;;;;;2.70;2.28;;;;;;;19.73;37.27;101177.00;4162876;28;20046;-48
2021/12/25 03:59:14;;;;;;;4.55;2.42;;;;;;;19.78;37.29;101153.97;4167152;28;20084;-47
2021/12/25 04:03:49;;;;;;;2.15;1.85;;;;;;;19.80;37.20;101160.13;4166799;28;20542;-45
2021/12/25 04:05:51;;;;;;;2.20;1.70;;;;;;;19.76;37.22;101143.16;4166324;28;20436;-45
2021/12/25 04:08:06;;;;;;;2.60;1.92;;;;;;;19.83;37.24;101144.84;4165989;28;20045;-45
2021/12/25 04:10:08;;;;;;;2.83;2.10;;;;;;;19.82;37.08;101130.13;4166760;28;20033;-49
2021/12/25 04:12:12;;;;;;;3.20;1.95;;;;;;;19.84;37.08;101138.19;4165836;28;20095;-44
2021/12/25 04:14:14;;;;;;;3.22;1.90;;;;;;;19.85;37.19;101153.75;4166863;28;20046;-49
2021/12/25 04:16:15;;;;;;;2.03;1.83;;;;;;;19.85;37.36;101120.44;4165272;28;20037;-46
2021/12/25 04:18:17;;;;;;;2.33;1.83;;;;;;;19.86;37.43;101113.75;4166083;28;20037;-48
2021/12/25 04:20:18;;;;;;;2.65;2.10;;;;;;;19.86;37.29;101119.31;4166149;28;20068;-47
2021/12/25 04:22:27;;;;;;;3.67;2.10;;;;;;;19.82;37.18;101112.63;4166109;28;20033;-48
2021/12/25 04:24:32;;;;;;;4.22;3.00;;;;;;;19.87;36.94;101104.31;4165998;28;20045;-49
2021/12/25 04:26:38;;;;;;;3.25;2.00;;;;;;;19.87;37.29;101109.88;4165763;28;20374;-45
2021/12/25 04:32:04;;;;;;;2.63;1.98;;;;;;;19.89;37.01;101118.78;4166627;28;20091;-45
2021/12/25 04:42:56;;;;;;;3.40;2.03;;;;;;;19.91;37.07;101064.63;4166410;28;20111;-45
2021/12/25 05:05:26;;;;;;;2.72;1.90;;;;;;;19.94;37.45;101022.44;4166769;28;20041;-46
2021/12/25 05:07:27;;;;;;;2.50;2.00;;;;;;;19.94;37.34;101010.50;4163752;28;20042;-48
2021/12/25 05:09:29;;;;;;;2.22;2.03;;;;;;;19.93;36.95;101015.22;4166004;28;20038;-49
2021/12/25 05:11:30;;;;;;;3.35;2.10;;;;;;;19.95;37.07;101012.16;4165346;28;20038;-45
2021/12/25 05:13:32;;;;;;;2.83;2.10;;;;;;;19.95;37.11;101010.22;4165177;28;20049;-45
2021/12/25 05:15:34;;;;;;;3.30;2.17;;;;;;;19.90;37.27;100987.16;4165877;28;20075;-44
2021/12/25 05:17:35;;;;;;;3.50;1.92;;;;;;;19.97;37.17;100984.94;4164890;28;20084;-47
2021/12/25 05:19:36;;;;;;;2.45;1.77;;;;;;;19.97;37.41;100990.47;4165162;28;20088;-47
2021/12/25 05:21:38;;;;;;;2.55;1.88;;;;;;;19.97;37.23;100998.81;4165256;28;20123;-48
2021/12/25 05:23:40;;;;;;;2.65;2.08;;;;;;;19.95;37.28;100978.81;4165427;28;20095;-50
2021/12/25 05:25:41;;;;;;;4.07;2.30;;;;;;;19.98;37.40;100987.47;4165656;28;20029;-45
2021/12/25 05:27:45;;;;;;;3.45;2.50;;;;;;;19.95;37.38;100973.28;4164751;28;20033;-47
2021/12/25 05:29:47;;;;;;;2.25;1.98;;;;;;;19.98;37.10;100990.22;4165566;28;20079;-47
2021/12/25 05:31:48;;;;;;;4.82;2.20;;;;;;;19.98;37.45;101001.34;4164711;28;20068;-48
2021/12/25 05:33:50;;;;;;;2.53;2.17;;;;;;;19.98;37.16;100986.63;4165591;28;20087;-44
2021/12/25 05:35:51;;;;;;;1.83;1.67;;;;;;;19.99;37.27;100988.28;4164903;28;20045;-47
2021/12/25 05:37:57;;;;;;;3.40;2.20;;;;;;;19.98;37.34;100990.22;4165031;28;20457;-44
2021/12/25 05:40:01;;;;;;;2.03;1.80;;;;;;;19.97;37.17;100976.59;4164974;28;20099;-44
2021/12/25 05:42:02;;;;;;;2.65;1.95;;;;;;;19.99;37.15;100971.63;4164480;28;20042;-46
2021/12/25 05:44:04;;;;;;;2.30;2.10;;;;;;;19.93;37.27;100948.56;4164731;28;20103;-45
2021/12/25 05:46:06;;;;;;;3.00;2.08;;;;;;;20.01;37.28;100944.38;4165025;28;20041;-44
2021/12/25 05:48:08;;;;;;;2.78;1.83;;;;;;;20.00;37.18;100938.00;4162971;28;20037;-47
2021/12/25 05:50:09;;;;;;;3.28;2.20;;;;;;;19.99;37.27;100930.78;4164469;28;20108;-46
2021/12/25 05:52:11;;;;;;;3.20;1.95;;;;;;;19.99;37.01;100903.00;4164727;28;20076;-48
2021/12/25 05:54:12;;;;;;;2.58;2.05;;;;;;;19.99;37.45;100918.84;4165121;28;20107;-46
2021/12/25 05:56:14;;;;;;;2.70;1.95;;;;;;;19.95;37.26;100924.13;4165082;28;20067;-48
2021/12/25 05:58:16;;;;;;;3.67;2.10;;;;;;;19.99;37.23;100928.00;4163914;28;20148;-47
2021/12/25 06:00:18;;;;;;;2.70;2.05;;;;;;;19.99;37.36;100927.19;4164155;28;20119;-46
2021/12/25 06:02:20;;;;;;;2.63;2.00;;;;;;;20.00;36.95;100932.44;4165068;28;20033;-48
2021/12/25 06:04:21;;;;;;;2.38;2.05;;;;;;;19.99;37.16;100927.19;4164462;28;20045;-44
2021/12/25 06:06:24;;;;;;;2.75;1.90;;;;;;;19.99;37.27;100924.41;4163298;28;20042;-47
2021/12/25 06:08:27;;;;;;;3.17;1.88;;;;;;;20.00;37.35;100917.72;4164777;28;20444;-46
2021/12/25 06:10:29;;;;;;;2.08;1.73;;;;;;;20.00;37.22;100907.44;4164882;28;20025;-50
2021/12/25 06:12:31;;;;;;;3.80;2.00;;;;;;;20.00;37.24;100892.72;4164388;28;20366;-47
2021/12/25 06:14:33;;;;;;;2.58;2.10;;;;;;;19.99;37.49;100891.91;4164923;28;20030;-47
2021/12/25 06:16:36;;;;;;;3.53;2.28;;;;;;;19.97;37.12;100871.06;4164196;28;20057;-50
2021/12/25 06:18:37;;;;;;;2.92;2.10;;;;;;;19.98;37.38;100867.19;4163878;28;20045;-45
2021/12/25 06:20:39;;;;;;;2.53;2.00;;;;;;;19.96;37.50;100852.72;4163710;28;20041;-49
2021/12/25 06:22:41;;;;;;;2.60;2.40;;;;;;;19.97;37.11;100851.63;4163697;28;20037;-46
2021/12/25 06:24:44;;;;;;;3.13;1.88;;;;;;;19.97;37.34;100851.63;4164318;28;20183;-45
2021/12/25 06:26:45;;;;;;;2.03;1.85;;;;;;;19.98;37.17;100867.19;4163852;28;20045;-46
2021/12/25 06:28:46;;;;;;;2.80;2.08;;;;;;;19.96;37.01;100858.28;4164082;28;20096;-45
2021/12/25 06:30:49;;;;;;;2.50;2.00;;;;;;;19.97;37.34;100865.50;4163715;28;20045;-46
2021/12/25 06:32:50;;;;;;;2.00;1.80;;;;;;;19.97;37.44;100887.72;4164642;28;20041;-46
2021/12/25 06:34:52;;;;;;;3.03;2.15;;;;;;;19.96;37.39;100891.63;4164641;28;20029;-46
2021/12/25 06:36:53;;;;;;;2.35;2.03;;;;;;;19.98;37.52;100861.63;4164165;28;20491;-46
2021/12/25 06:38:55;;;;;;;2.10;1.75;;;;;;;19.94;37.64;100854.97;4163829;28;20076;-47
2021/12/25 06:40:56;;;;;;;3.22;1.90;;;;;;;19.96;37.48;100852.72;4164522;28;20350;-46
2021/12/25 06:42:58;;;;;;;2.47;2.10;;;;;;;19.95;37.35;100838.00;4164004;28;20037;-45
2021/12/25 06:45:00;;;;;;;2.63;2.17;;;;;;;19.95;37.64;100839.97;4164326;28;20396;-47
2021/12/25 06:47:04;;;;;;;2.55;2.00;;;;;;;19.88;37.42;100817.16;4164511;28;20056;-48
2021/12/25 06:49:05;;;;;;;3.08;2.33;;;;;;;19.94;37.19;100832.75;4163551;28;20042;-45
2021/12/25 06:51:09;;;;;;;2.33;2.00;;;;;;;19.93;37.31;100837.47;4164313;28;20034;-44
2021/12/25 06:53:10;;;;;;;2.60;1.92;;;;;;;19.94;37.54;100835.53;4164004;28;20041;-48
2021/12/25 06:55:13;;;;;;;1.95;1.77;;;;;;;19.94;37.34;100839.13;4164301;28;20095;-47
2021/12/25 06:57:14;;;;;;;2.45;2.03;;;;;;;19.93;37.56;100844.94;4163718;28;20100;-44
2021/12/25 06:59:17;;;;;;;3.63;2.17;;;;;;;19.93;37.51;100842.16;4164065;28;20033;-46
2021/12/25 07:01:21;;;;;;;2.75;2.17;;;;;;;19.92;37.60;100840.50;4164172;28;20432;-46
2021/12/25 07:03:25;;;;;;;2.50;2.30;;;;;;;19.90;37.72;100840.78;4163841;28;20103;-44
2021/12/25 07:05:26;;;;;;;2.42;2.00;;;;;;;19.90;37.47;100842.75;4163490;28;20042;-48
2021/12/25 07:07:28;;;;;;;2.08;1.77;;;;;;;19.90;37.37;100851.06;4163432;28;20119;-47
2021/12/25 07:09:29;;;;;;;2.85;2.00;;;;;;;19.90;37.50;100834.41;4164331;28;20029;-47
2021/12/25 07:11:31;;;;;;;2.85;2.10;;;;;;;19.89;37.45;100824.41;4163800;28;20099;-46
2021/12/25 07:13:33;;;;;;;3.15;2.00;;;;;;;19.89;37.52;100824.41;4163302;28;20103;-46
2021/12/25 07:15:34;;;;;;;3.28;2.13;;;;;;;19.88;37.71;100811.63;4163691;28;20103;-47
2021/12/25 07:17:36;;;;;;;2.40;1.92;;;;;;;19.89;37.40;100818.88;4163997;28;20029;-48
2021/12/25 07:19:37;;;;;;;2.97;2.35;;;;;;;19.86;37.85;100808.28;4163998;28;20107;-46
2021/12/25 07:21:39;;;;;;;3.10;2.00;;;;;;;19.83;37.42;100804.13;4163621;28;20042;-47
2021/12/25 07:23:43;;;;;;;2.60;1.80;;;;;;;19.84;37.52;100804.94;4164303;28;20083;-48
2021/12/25 07:25:45;;;;;;;2.38;2.08;;;;;;;19.85;37.73;100789.97;4165068;28;20088;-47
2021/12/25 07:27:46;;;;;;;2.33;2.08;;;;;;;19.85;37.66;100795.53;4167160;28;20029;-48
2021/12/25 07:29:48;;;;;;;2.88;2.15;;;;;;;19.84;37.93;100788.28;4166982;28;20041;-48
2021/12/25 07:31:49;;;;;;;2.97;2.40;;;;;;;19.83;37.70;100786.63;4166822;28;20103;-47
2021/12/25 07:33:51;;;;;;;2.25;2.00;;;;;;;19.83;37.45;100781.06;4166486;28;20037;-46
2021/12/25 07:35:52;;;;;;;2.47;2.10;;;;;;;19.83;37.64;100775.53;4167229;28;20037;-50
2021/12/25 07:37:55;;;;;;;2.55;1.70;;;;;;;19.83;37.34;100769.97;4167026;28;20531;-50
2021/12/25 07:39:56;;;;;;;2.65;2.17;;;;;;;19.80;37.70;100760.25;4166652;28;20045;-47
2021/12/25 07:42:04;;;;;;;2.53;1.90;;;;;;;19.79;37.70;100748.31;4167208;28;20307;-47
2021/12/25 07:44:06;;;;;;;3.85;2.10;;;;;;;19.82;37.61;100748.88;4166960;28;20091;-46
2021/12/25 07:46:07;;;;;;;2.38;2.17;;;;;;;19.83;37.50;100747.75;4166415;28;20115;-47
2021/12/25 07:48:09;;;;;;;3.88;1.83;;;;;;;19.82;37.66;100734.97;4166066;28;20037;-46
2021/12/25 07:50:10;;;;;;;1.92;1.77;;;;;;;19.82;37.68;100729.44;4167121;28;20033;-47
2021/12/25 07:52:12;;;;;;;3.53;2.08;;;;;;;19.80;37.65;100718.63;4167295;28;20030;-45
2021/12/25 07:54:13;;;;;;;2.50;2.00;;;;;;;19.79;37.76;100706.69;4167141;28;20435;-46
2021/12/25 07:56:15;;;;;;;2.70;2.08;;;;;;;19.78;37.44;100712.50;4166630;28;20037;-46
2021/12/25 07:58:18;;;;;;;2.28;1.92;;;;;;;19.78;37.33;100716.09;4165787;28;20087;-44
2021/12/25 08:00:19;;;;;;;2.55;2.22;;;;;;;19.78;37.78;100716.09;4166727;28;20038;-45
2021/12/25 08:02:23;;;;;;;2.30;2.03;;;;;;;19.78;37.43;100706.94;4166873;28;20037;-45
2021/12/25 08:04:24;;;;;;;2.85;2.35;;;;;;;19.76;37.60;100682.25;4166484;28;20115;-45
2021/12/25 08:06:26;;;;;;;2.42;2.00;;;;;;;19.74;37.76;100667.78;4166344;28;20046;-48
2021/12/25 08:08:27;;;;;;;2.30;2.10;;;;;;;19.76;37.70;100660.03;4166447;28;20477;-45
2021/12/25 08:10:30;;;;;;;3.15;2.15;;;;;;;19.75;37.64;100663.91;4166778;28;20091;-45
2021/12/25 08:12:32;;;;;;;2.30;2.10;;;;;;;19.70;37.54;100655.59;4166112;28;20497;-45
2021/12/25 08:14:34;;;;;;;2.42;2.22;;;;;;;19.73;37.32;100660.56;4166806;28;20095;-46
2021/12/25 08:16:38;;;;;;;2.55;1.85;;;;;;;19.74;37.73;100661.41;4166855;28;20441;-47
2021/12/25 08:18:39;;;;;;;2.13;1.70;;;;;;;19.72;37.53;100650.59;4166344;28;20033;-49
2021/12/25 08:20:41;;;;;;;2.00;1.83;;;;;;;19.72;37.80;100636.72;4166530;28;20642;-47
2021/12/25 08:22:43;;;;;;;3.05;2.03;;;;;;;19.74;37.47;100641.97;4166114;28;20053;-47
2021/12/25 08:24:46;;;;;;;2.63;2.20;;;;;;;19.70;37.39;100622.28;4167582;28;20095;-47
2021/12/25 08:26:49;;;;;;;2.00;1.80;;;;;;;19.72;37.61;100624.78;4166038;28;20071;-48
2021/12/25 08:28:50;;;;;;;2.28;1.90;;;;;;;19.72;37.63;100624.78;4166309;28;20041;-50
2021/12/25 08:30:52;;;;;;;1.70;1.60;;;;;;;19.71;37.51;100621.16;4166177;28;20038;-45
2021/12/25 08:32:59;;;;;;;2.90;2.05;;;;;;;19.71;37.34;100612.00;4166628;28;20025;-47
2021/12/25 08:35:00;;;;;;;2.38;2.10;;;;;;;19.69;37.79;100609.50;4165817;28;20037;-45
2021/12/25 08:37:02;;;;;;;2.95;2.13;;;;;;;19.67;37.54;100606.19;4165706;28;20041;-44
2021/12/25 08:39:07;;;;;;;2.17;1.95;;;;;;;19.64;37.45;100592.03;4165289;28;20064;-46
2021/12/25 08:41:08;;;;;;;2.30;2.03;;;;;;;19.67;37.34;100594.25;4165769;28;20099;-46
2021/12/25 08:43:10;;;;;;;3.35;2.08;;;;;;;19.68;37.75;100591.19;4165968;28;20535;-45
2021/12/25 08:47:35;;;;;;;2.38;2.17;;;;;;;19.66;37.65;100590.66;4166198;28;20435;-48
2021/12/25 08:49:39;;;;;;;6.97;2.33;;;;;;;19.67;37.52;100586.75;4166280;28;20366;-46
2021/12/25 08:51:41;;;;;;;2.60;2.08;;;;;;;19.66;37.46;100575.94;4166248;28;20087;-48
2021/12/25 08:53:42;;;;;;;3.25;2.45;;;;;;;19.67;37.51;100566.50;4165684;28;20033;-48
2021/12/25 08:55:45;;;;;;;2.55;2.13;;;;;;;19.60;37.56;100565.91;4166277;28;20099;-45
2021/12/25 08:57:46;;;;;;;2.38;1.77;;;;;;;19.64;37.84;100573.44;4180087;28;20071;-46
2021/12/25 08:59:51;;;;;;;2.72;2.15;;;;;;;19.62;37.53;100567.34;4165381;28;20092;-48
2021/12/25 09:01:53;;;;;;;2.28;1.88;;;;;;;19.64;37.78;100567.88;4165395;28;20076;-46
2021/12/25 09:03:55;;;;;;;3.30;2.20;;;;;;;19.64;37.37;100584.53;4165311;28;20045;-46
2021/12/25 09:05:59;;;;;;;2.25;2.00;;;;;;;19.63;37.63;100580.09;4165375;28;20103;-47
2021/12/25 09:08:01;;;;;;;3.47;2.20;;;;;;;19.63;37.51;100573.72;4165570;28;20029;-48
2021/12/25 09:10:04;;;;;;;2.67;2.25;;;;;;;19.64;37.40;100573.44;4166225;28;20088;-46
2021/12/25 09:12:09;;;;;;;2.88;2.28;;;;;;;19.61;37.38;100576.78;4166053;28;20033;-46
2021/12/25 09:14:10;;;;;;;2.67;2.10;;;;;;;19.61;37.50;100571.22;4165545;28;20042;-47
2021/12/25 09:16:12;;;;;;;2.08;1.88;;;;;;;19.62;37.51;100575.66;4163719;28;20037;-44
2021/12/25 09:18:13;;;;;;;2.13;1.92;;;;;;;19.60;37.46;100555.66;4165463;28;20079;-45
2021/12/25 09:20:22;;;;;;;3.03;2.28;;;;;;;19.57;37.64;100539.56;4165953;28;20038;-45
2021/12/25 09:22:23;;;;;;;2.25;2.00;;;;;;;19.59;37.80;100525.41;4165203;28;20362;-45
2021/12/25 09:24:25;;;;;;;2.70;2.25;;;;;;;19.58;37.49;100520.97;4165472;28;20115;-45
2021/12/25 09:26:26;;;;;;;2.42;2.13;;;;;;;19.58;37.46;100519.03;4165227;28;20033;-46
2021/12/25 09:28:28;;;;;;;2.80;2.00;;;;;;;19.56;37.38;100510.13;4165660;28;20107;-45
2021/12/25 09:30:30;;;;;;;2.65;2.38;;;;;;;19.48;37.60;100507.94;4165555;28;20083;-47
2021/12/25 09:32:32;;;;;;;2.45;1.80;;;;;;;19.54;37.85;100512.38;4165101;28;20045;-46
2021/12/25 09:34:33;;;;;;;2.30;2.10;;;;;;;19.53;37.76;100522.63;4165457;28;20111;-48
2021/12/25 09:36:35;;;;;;;3.13;2.25;;;;;;;19.51;37.61;100512.91;4165080;28;20103;-46
2021/12/25 09:38:36;;;;;;;2.10;1.90;;;;;;;19.49;37.76;100520.72;4164794;28;20037;-47
2021/12/25 09:40:38;;;;;;;3.15;2.25;;;;;;;19.47;37.88;100518.22;4165443;28;20029;-49
2021/12/25 09:42:42;;;;;;;2.97;2.50;;;;;;;19.48;37.54;100519.06;4179586;28;20174;-51
2021/12/25 09:44:43;;;;;;;2.40;2.20;;;;;;;19.47;38.07;100517.38;4165348;28;20053;-49
2021/12/25 09:46:45;;;;;;;2.95;2.30;;;;;;;19.48;37.60;100519.88;4165666;28;20091;-48
2021/12/25 09:48:47;;;;;;;2.53;2.25;;;;;;;19.46;37.79;100518.47;4163751;28;20068;-47
2021/12/25 09:50:49;;;;;;;3.08;2.17;;;;;;;19.47;37.73;100536.78;4165146;28;20037;-45
2021/12/25 09:52:51;;;;;;;2.67;2.10;;;;;;;19.45;38.12;100525.97;4164650;28;20038;-49
2021/12/25 09:54:53;;;;;;;2.45;2.03;;;;;;;19.44;37.94;100529.06;4164433;28;20053;-47
2021/12/25 09:56:56;;;;;;;2.65;2.30;;;;;;;19.44;37.90;100545.69;4165291;28;20064;-49
2021/12/25 09:59:03;;;;;;;2.63;2.15;;;;;;;19.41;37.85;100546.25;4164954;28;20091;-46
2021/12/25 10:01:05;;;;;;;2.92;2.08;;;;;;;19.42;37.74;100531.25;4164707;28;20551;-47
2021/12/25 10:03:06;;;;;;;2.53;2.33;;;;;;;19.41;37.77;100510.19;4165290;28;20504;-44
2021/12/25 10:05:10;;;;;;;3.40;2.45;;;;;;;19.40;38.01;100505.75;4164984;28;20025;-49
2021/12/25 10:07:24;;;;;;;2.80;2.20;;;;;;;19.39;37.61;100512.41;4164274;28;20497;-46
2021/12/25 10:09:28;;;;;;;2.17;1.92;;;;;;;19.36;37.85;100493.53;4164269;28;20365;-50
2021/12/25 10:11:30;;;;;;;2.72;2.08;;;;;;;19.39;38.01;100501.31;4164526;28;20038;-48
2021/12/25 10:13:39;;;;;;;2.85;1.83;;;;;;;19.36;38.10;100480.50;4164656;28;20045;-43
2021/12/25 10:15:40;;;;;;;3.30;2.05;;;;;;;19.37;38.01;100473.00;4164251;28;20045;-46
2021/12/25 10:17:48;;;;;;;2.97;2.15;;;;;;;19.36;37.88;100479.66;4163624;28;20432;-45
2021/12/25 10:20:11;;;;;;;2.58;2.00;;;;;;;19.33;38.05;100481.06;4163957;28;20103;-44
2021/12/25 10:22:13;;;;;;;2.92;2.10;;;;;;;19.35;37.78;100459.44;4164192;28;20045;-48
2021/12/25 10:24:26;;;;;;;2.47;2.00;;;;;;;19.30;37.86;100451.94;4163951;28;20045;-47
2021/12/25 10:26:28;;;;;;;2.58;2.30;;;;;;;19.33;37.79;100444.16;4162370;28;20041;-47
2021/12/25 10:28:34;;;;;;;2.45;2.08;;;;;;;19.31;38.06;100441.69;4164026;28;20045;-45
2021/12/25 10:30:55;;;;;;;2.35;1.90;;;;;;;19.27;37.89;100441.41;4164232;28;20041;-49
2021/12/25 10:32:56;;;;;;;3.17;2.13;;;;;;;19.26;38.05;100441.69;4164637;28;20067;-48
2021/12/25 10:34:58;;;;;;;2.42;2.10;;;;;;;19.30;37.94;100451.13;4164757;28;20496;-43
2021/12/25 10:37:25;;;;;;;2.65;2.20;;;;;;;19.27;38.22;100446.94;4163913;28;20550;-47
2021/12/25 10:39:28;;;;;;;2.38;2.17;;;;;;;19.28;37.86;100437.50;4160968;28;20033;-44
2021/12/25 10:41:30;;;;;;;2.97;1.85;;;;;;;19.27;37.88;100423.94;4163892;28;20127;-45
2021/12/25 10:43:41;;;;;;;2.55;2.13;;;;;;;19.25;38.31;100421.44;4162606;28;20037;-45
2021/12/25 10:45:56;;;;;;;4.07;2.17;;;;;;;19.26;37.80;100416.72;4164442;28;20072;-44
2021/12/25 10:48:02;;;;;;;;;;;;;;;19.24;38.16;100419.78;4164001;28;20119;-44
2021/12/25 10:50:18;;;;;;;2.60;2.00;;;;;;;19.28;38.13;100387.56;4163743;28;19917;-46
2021/12/25 10:52:40;;;;;;;2.13;1.80;;;;;;;19.30;38.16;100379.00;4163714;28;20457;-48